createdAt,value
2018-05-23T00:01:27.274Z,7.12
2018-05-23T00:04:37.095Z,6.53
2018-05-23T00:11:22.788Z,6.85
2018-05-23T00:14:32.807Z,7.95
2018-05-23T00:17:42.844Z,6.30
2018-05-23T00:20:52.871Z,6.65
2018-05-23T00:24:02.782Z,6.55
2018-05-23T00:27:13.376Z,6.75
2018-05-23T00:30:23.461Z,6.82
2018-05-23T00:33:33.171Z,5.80
2018-05-23T00:36:43.797Z,5.85
2018-05-23T00:39:53.877Z,5.05
2018-05-23T00:43:04.001Z,6.53
2018-05-23T00:46:14.410Z,6.65
2018-05-23T00:49:24.845Z,6.00
2018-05-23T00:52:34.577Z,8.52
2018-05-23T00:55:44.544Z,8.77
2018-05-23T00:58:54.920Z,7.32
2018-05-23T01:02:05.183Z,7.43
2018-05-23T01:05:15.850Z,7.25
2018-05-23T01:08:26.237Z,7.75
2018-05-23T01:11:36.209Z,6.97
2018-05-23T01:14:46.897Z,6.15
2018-05-23T01:17:57.534Z,6.18
2018-05-23T01:21:07.541Z,5.68
2018-05-23T01:24:18.086Z,6.65
2018-05-23T01:27:27.915Z,8.18
2018-05-23T01:30:38.237Z,9.23
2018-05-23T01:33:49.317Z,7.87
2018-05-23T01:36:59.372Z,6.87
2018-05-23T01:40:10.545Z,5.57
2018-05-23T01:43:20.887Z,5.82
2018-05-23T01:46:30.783Z,7.18
2018-05-23T01:49:40.509Z,8.10
2018-05-23T01:52:50.588Z,7.70
2018-05-23T01:56:01.253Z,7.78
2018-05-23T01:59:11.463Z,7.80
2018-05-23T02:02:21.325Z,5.93
2018-05-23T02:05:31.262Z,6.80
2018-05-23T02:08:41.148Z,6.90
2018-05-23T02:11:52.077Z,7.78
2018-05-23T02:15:02.754Z,9.45
2018-05-23T02:18:12.590Z,7.93
2018-05-23T02:21:22.345Z,8.55
2018-05-23T02:24:33.139Z,11.93
2018-05-23T02:27:42.999Z,7.60
2018-05-23T02:30:53.739Z,6.78
2018-05-23T02:34:04.409Z,8.27
2018-05-23T02:37:14.300Z,9.63
2018-05-23T02:40:25.427Z,9.38
2018-05-23T02:43:36.145Z,7.25
2018-05-23T02:46:45.935Z,8.15
2018-05-23T02:49:55.792Z,8.50
2018-05-23T02:53:05.601Z,9.38
2018-05-23T02:56:15.534Z,9.05
2018-05-23T02:59:25.641Z,7.03
2018-05-23T03:02:36.392Z,9.32
2018-05-23T03:05:46.533Z,6.43
2018-05-23T03:08:56.692Z,9.50
2018-05-23T03:12:06.703Z,7.60
2018-05-23T03:15:16.539Z,8.45
2018-05-23T03:18:27.032Z,7.80
2018-05-23T03:21:37.425Z,9.63
2018-05-23T03:24:47.916Z,8.43
2018-05-23T03:27:58.797Z,8.93
2018-05-23T03:31:09.158Z,9.07
2018-05-23T03:34:19.935Z,8.23
2018-05-23T03:37:29.852Z,7.82
2018-05-23T03:40:40.326Z,7.97
2018-05-23T03:43:50.769Z,6.90
2018-05-23T03:47:00.511Z,8.68
2018-05-23T03:50:10.302Z,7.18
2018-05-23T03:53:20.943Z,8.07
2018-05-23T03:56:31.184Z,7.10
2018-05-23T03:59:53.220Z,8.80
2018-05-23T04:03:15.068Z,9.35
2018-05-23T04:06:36.727Z,8.10
2018-05-23T04:09:47.175Z,8.88
2018-05-23T04:12:58.029Z,9.43
2018-05-23T04:16:08.134Z,8.73
2018-05-23T04:19:19.204Z,7.10
2018-05-23T04:22:31.201Z,9.50
2018-05-23T04:25:41.381Z,10.13
2018-05-23T04:28:51.693Z,9.75
2018-05-23T04:32:02.414Z,9.85
2018-05-23T04:35:12.982Z,8.40
2018-05-23T04:38:23.553Z,9.85
2018-05-23T04:41:34.036Z,9.20
2018-05-23T04:44:44.316Z,8.70
2018-05-23T04:47:54.245Z,10.75
2018-05-23T04:51:04.944Z,9.57
2018-05-23T04:54:14.546Z,10.57
2018-05-23T04:57:24.881Z,7.90
2018-05-23T05:00:35.517Z,14.27
2018-05-23T05:03:45.833Z,10.73
2018-05-23T05:06:55.697Z,10.68
2018-05-23T05:10:05.730Z,11.32
2018-05-23T05:13:16.479Z,12.27
2018-05-23T05:16:26.991Z,9.48
2018-05-23T05:19:37.730Z,9.07
2018-05-23T05:22:48.121Z,10.07
2018-05-23T05:25:58.212Z,12.45
2018-05-23T05:29:08.429Z,9.38
2018-05-23T05:32:19.432Z,10.85
2018-05-23T05:35:29.892Z,10.23
2018-05-23T05:38:39.783Z,12.98
2018-05-23T05:41:50.611Z,9.60
2018-05-23T05:45:02.045Z,12.70
2018-05-23T05:48:12.290Z,11.05
2018-05-23T05:51:23.429Z,10.60
2018-05-23T05:54:33.394Z,10.02
2018-05-23T05:57:43.355Z,11.32
2018-05-23T06:00:53.359Z,12.48
2018-05-23T06:04:04.026Z,12.23
2018-05-23T06:07:14.720Z,12.20
2018-05-23T06:10:24.974Z,14.20
2018-05-23T06:13:34.836Z,14.00
2018-05-23T06:16:44.764Z,10.90
2018-05-23T06:19:54.913Z,10.18
2018-05-23T06:23:05.305Z,11.70
2018-05-23T06:26:15.925Z,12.10
2018-05-23T06:29:26.037Z,10.90
2018-05-23T06:32:36.183Z,12.48
2018-05-23T06:35:47.721Z,10.35
2018-05-23T06:38:57.806Z,9.60
2018-05-23T06:42:08.715Z,10.95
2018-05-23T06:45:18.645Z,11.70
2018-05-23T06:48:28.670Z,10.98
2018-05-23T06:51:38.976Z,12.10
2018-05-23T06:54:48.920Z,12.77
2018-05-23T06:57:59.077Z,12.10
2018-05-23T07:01:09.741Z,10.75
2018-05-23T07:04:20.766Z,12.80
2018-05-23T07:07:30.876Z,11.07
2018-05-23T07:10:41.087Z,9.60
2018-05-23T07:13:51.082Z,11.18
2018-05-23T07:17:01.765Z,10.93
2018-05-23T07:20:12.151Z,8.73
2018-05-23T07:23:22.257Z,11.68
2018-05-23T07:26:35.179Z,9.30
2018-05-23T07:29:45.182Z,9.40
2018-05-23T07:32:56.433Z,11.02
2018-05-23T07:36:06.737Z,10.55
2018-05-23T07:39:17.365Z,10.70
2018-05-23T07:42:29.309Z,10.95
2018-05-23T07:45:39.424Z,10.88
2018-05-23T07:48:50.166Z,12.25
2018-05-23T07:52:00.783Z,11.93
2018-05-23T07:55:11.804Z,10.45
2018-05-23T07:58:21.937Z,13.60
2018-05-23T08:01:32.786Z,13.25
2018-05-23T08:04:42.674Z,10.13
2018-05-23T08:07:52.775Z,12.23
2018-05-23T08:11:02.706Z,11.73
2018-05-23T08:14:12.692Z,11.30
2018-05-23T08:17:23.746Z,13.35
2018-05-23T08:20:33.928Z,13.25
2018-05-23T08:23:44.604Z,10.73
2018-05-23T08:26:54.894Z,13.52
2018-05-23T08:30:04.165Z,12.77
2018-05-23T08:33:15.247Z,10.48
2018-05-23T08:36:25.454Z,11.90
2018-05-23T08:39:35.353Z,12.02
2018-05-23T08:42:46.331Z,11.35
2018-05-23T08:45:56.132Z,11.80
2018-05-23T08:49:07.136Z,11.35
2018-05-23T08:52:18.668Z,13.27
2018-05-23T08:55:28.817Z,9.77
2018-05-23T08:58:38.786Z,12.35
2018-05-23T09:01:49.620Z,14.38
2018-05-23T09:04:59.832Z,11.60
2018-05-23T09:08:09.888Z,10.52
2018-05-23T09:11:20.147Z,10.32
2018-05-23T09:14:31.503Z,11.07
2018-05-23T09:17:42.028Z,10.10
2018-05-23T09:20:52.362Z,9.75
2018-05-23T09:24:02.986Z,12.02
2018-05-23T09:27:12.995Z,7.75
2018-05-23T09:30:22.488Z,11.40
2018-05-23T09:33:32.927Z,10.87
2018-05-23T09:36:43.231Z,12.70
2018-05-23T09:39:53.057Z,7.87
2018-05-23T09:43:03.282Z,9.80
2018-05-23T09:46:13.809Z,10.77
2018-05-23T09:49:24.505Z,11.95
2018-05-23T09:52:34.609Z,11.52
2018-05-23T09:55:44.468Z,7.25
2018-05-23T09:58:55.206Z,12.25
2018-05-23T10:02:05.236Z,11.15
2018-05-23T10:05:15.879Z,9.68
2018-05-23T10:08:25.777Z,12.90
2018-05-23T10:11:35.548Z,11.10
2018-05-23T10:14:45.403Z,11.07
2018-05-23T10:17:55.471Z,11.30
2018-05-23T10:21:06.340Z,14.60
2018-05-23T10:24:16.826Z,14.27
2018-05-23T10:27:27.215Z,12.13
2018-05-23T10:30:36.779Z,12.90
2018-05-23T10:33:46.617Z,11.23
2018-05-23T10:36:56.541Z,11.47
2018-05-23T10:40:06.428Z,12.57
2018-05-23T10:43:16.537Z,13.30
2018-05-23T10:46:26.348Z,14.93
2018-05-23T10:49:36.528Z,16.58
2018-05-23T10:52:46.484Z,14.63
2018-05-23T10:55:55.983Z,12.27
2018-05-23T10:59:06.695Z,11.90
2018-05-23T11:02:17.399Z,13.88
2018-05-23T11:05:27.307Z,14.10
2018-05-23T11:08:38.017Z,16.10
2018-05-23T11:11:48.033Z,14.82
2018-05-23T11:14:57.875Z,14.15
2018-05-23T11:18:08.862Z,13.98
2018-05-23T11:21:18.845Z,13.93
2018-05-23T11:24:29.083Z,12.48
2018-05-23T11:27:38.957Z,14.20
2018-05-23T11:30:49.948Z,13.52
2018-05-23T11:34:00.165Z,12.85
2018-05-23T11:37:10.221Z,11.27
2018-05-23T11:40:20.414Z,13.07
2018-05-23T11:43:32.036Z,13.35
2018-05-23T11:46:42.260Z,14.05
2018-05-23T11:49:52.686Z,15.52
2018-05-23T11:53:02.986Z,11.52
2018-05-23T11:56:13.485Z,12.50
2018-05-23T11:59:23.851Z,13.05
2018-05-23T12:02:33.780Z,13.05
2018-05-23T12:05:44.456Z,11.50
2018-05-23T12:08:55.527Z,9.15
2018-05-23T12:12:06.836Z,9.57
2018-05-23T12:15:17.675Z,8.45
2018-05-23T12:18:27.946Z,13.35
2018-05-23T12:21:38.301Z,13.88
2018-05-23T12:24:48.655Z,13.43
2018-05-23T12:27:58.966Z,12.20
2018-05-23T12:31:08.905Z,15.32
2018-05-23T12:34:18.936Z,13.52
2018-05-23T12:37:28.793Z,13.00
2018-05-23T12:40:39.207Z,13.85
2018-05-23T12:43:49.419Z,14.05
2018-05-23T12:46:59.344Z,14.75
2018-05-23T12:50:09.629Z,13.00
2018-05-23T12:53:20.432Z,17.37
2018-05-23T12:56:30.798Z,11.93
2018-05-23T12:59:41.719Z,11.77
2018-05-23T13:02:53.218Z,10.30
2018-05-23T13:06:03.083Z,11.88
2018-05-23T13:09:13.946Z,8.85
2018-05-23T13:12:23.854Z,11.82
2018-05-23T13:15:34.783Z,8.50
2018-05-23T13:18:45.879Z,5.07
2018-05-23T13:21:56.613Z,8.27
2018-05-23T13:25:07.997Z,5.60
2018-05-23T13:28:18.905Z,13.10
2018-05-23T13:31:28.816Z,20.95
2018-05-23T13:34:38.626Z,114.43
2018-05-23T13:37:49.057Z,95.80
2018-05-23T13:40:59.113Z,13.93
2018-05-23T13:44:09.166Z,7.50
2018-05-23T13:47:19.426Z,6.60
2018-05-23T13:50:29.270Z,4.80
2018-05-23T13:53:39.451Z,6.62
2018-05-23T13:56:49.547Z,5.68
2018-05-23T13:59:59.616Z,4.25
2018-05-23T14:03:09.423Z,4.70
2018-05-23T14:06:19.144Z,6.12
2018-05-23T14:09:29.295Z,6.25
2018-05-23T14:12:39.960Z,4.90
2018-05-23T14:15:50.291Z,5.03
2018-05-23T14:19:00.488Z,4.85
2018-05-23T14:22:11.501Z,4.10
2018-05-23T14:25:22.042Z,5.55
2018-05-23T14:28:32.545Z,4.68
2018-05-23T14:31:42.893Z,8.32
2018-05-23T14:34:53.251Z,6.57
2018-05-23T14:38:03.489Z,6.82
2018-05-23T14:41:13.845Z,6.05
2018-05-23T14:44:24.258Z,10.25
2018-05-23T14:47:34.506Z,11.15
2018-05-23T14:50:44.672Z,9.55
2018-05-23T14:53:54.671Z,7.50
2018-05-23T14:57:04.036Z,7.87
2018-05-23T15:00:15.248Z,7.57
2018-05-23T15:03:25.597Z,8.50
2018-05-23T15:06:37.065Z,8.77
2018-05-23T15:09:47.189Z,9.98
2018-05-23T15:12:57.091Z,8.10
2018-05-23T15:16:07.156Z,8.80
2018-05-23T15:19:16.650Z,11.40
2018-05-23T15:22:26.919Z,10.88
2018-05-23T15:25:37.214Z,10.57
2018-05-23T15:28:47.655Z,10.90
2018-05-23T15:31:58.287Z,11.25
2018-05-23T15:35:09.016Z,13.48
2018-05-23T15:38:19.863Z,11.30
2018-05-23T15:41:30.213Z,11.52
2018-05-23T15:44:40.664Z,15.30
2018-05-23T15:47:50.531Z,12.52
2018-05-23T15:51:00.683Z,13.52
2018-05-23T15:54:11.005Z,12.13
2018-05-23T15:57:21.084Z,15.43
2018-05-23T16:00:31.841Z,11.77
2018-05-23T16:03:42.012Z,14.52
2018-05-23T16:06:53.404Z,13.35
2018-05-23T16:10:03.652Z,12.85
2018-05-23T16:13:13.568Z,12.50
2018-05-23T16:16:24.060Z,13.57
2018-05-23T16:19:34.909Z,12.18
2018-05-23T16:22:44.935Z,12.88
2018-05-23T16:25:55.018Z,10.30
2018-05-23T16:29:05.791Z,11.85
2018-05-23T16:32:16.104Z,13.38
2018-05-23T16:35:26.873Z,11.90
2018-05-23T16:38:37.654Z,13.55
2018-05-23T16:41:48.009Z,11.75
2018-05-23T16:44:59.142Z,14.77
2018-05-23T16:48:08.927Z,11.85
2018-05-23T16:51:19.677Z,13.45
2018-05-23T16:54:29.883Z,13.77
2018-05-23T16:57:40.025Z,12.77
2018-05-23T17:00:51.277Z,10.93
2018-05-23T17:04:01.672Z,12.85
2018-05-23T17:07:12.616Z,13.95
2018-05-23T17:10:22.698Z,11.95
2018-05-23T17:13:33.263Z,10.55
2018-05-23T17:16:43.413Z,15.07
2018-05-23T17:19:54.081Z,14.93
2018-05-23T17:23:04.133Z,14.57
2018-05-23T17:26:14.137Z,15.95
2018-05-23T17:29:24.425Z,15.73
2018-05-23T17:32:35.050Z,14.87
2018-05-23T17:35:45.278Z,15.05
2018-05-23T17:38:56.431Z,14.95
2018-05-23T17:42:06.956Z,13.35
2018-05-23T17:45:17.214Z,13.70
2018-05-23T17:48:27.609Z,16.50
2018-05-23T17:51:37.799Z,16.30
2018-05-23T17:54:48.639Z,17.45
2018-05-23T17:57:59.230Z,16.25
2018-05-23T18:01:09.288Z,13.48
2018-05-23T18:04:19.614Z,14.20
2018-05-23T18:07:29.902Z,16.87
2018-05-23T18:10:40.095Z,14.85
2018-05-23T18:13:50.499Z,17.50
2018-05-23T18:17:00.883Z,14.90
2018-05-23T18:20:11.469Z,14.27
2018-05-23T18:23:21.834Z,13.90
2018-05-23T18:26:32.179Z,16.25
2018-05-23T18:29:42.406Z,14.55
2018-05-23T18:32:53.293Z,16.62
2018-05-23T18:36:02.843Z,13.60
2018-05-23T18:39:13.089Z,16.17
2018-05-23T18:42:23.786Z,17.80
2018-05-23T18:45:34.552Z,12.98
2018-05-23T18:48:45.345Z,16.25
2018-05-23T18:51:56.118Z,15.68
2018-05-23T18:55:06.060Z,13.65
2018-05-23T18:58:17.224Z,18.20
2018-05-23T19:01:27.774Z,13.13
2018-05-23T19:04:37.942Z,16.02
2018-05-23T19:07:48.505Z,15.30
2018-05-23T19:10:59.723Z,17.00
2018-05-23T19:14:09.772Z,15.32
2018-05-23T19:17:19.928Z,15.80
2018-05-23T19:20:30.048Z,15.57
2018-05-23T19:23:40.421Z,18.62
2018-05-23T19:26:50.811Z,14.00
2018-05-23T19:30:01.471Z,16.17
2018-05-23T19:33:11.511Z,14.95
2018-05-23T19:36:21.917Z,16.35
2018-05-23T19:39:31.778Z,18.62
2018-05-23T19:42:41.750Z,18.92
2018-05-23T19:45:52.771Z,18.87
2018-05-23T19:49:02.963Z,18.00
2018-05-23T19:52:13.176Z,14.68
2018-05-23T19:55:23.249Z,19.73
2018-05-23T19:58:33.561Z,16.67
2018-05-23T20:01:44.176Z,18.73
2018-05-23T20:04:54.768Z,20.62
2018-05-23T20:08:04.701Z,21.05
2018-05-23T20:11:15.644Z,19.12
2018-05-23T20:14:25.898Z,23.10
2018-05-23T20:17:36.708Z,21.12
2018-05-23T20:20:47.367Z,19.80
2018-05-23T20:23:57.962Z,18.35
2018-05-23T20:27:08.221Z,17.45
2018-05-23T20:30:18.319Z,21.30
2018-05-23T20:33:29.081Z,17.50
2018-05-23T20:36:40.492Z,19.35
2018-05-23T20:39:50.893Z,19.52
2018-05-23T20:43:02.083Z,21.77
2018-05-23T20:46:12.426Z,21.00
2018-05-23T20:49:23.555Z,20.67
2018-05-23T20:52:33.545Z,21.58
2018-05-23T20:55:44.174Z,23.83
2018-05-23T20:58:54.701Z,22.90
2018-05-23T21:02:06.431Z,19.02
2018-05-23T21:05:17.217Z,18.60
2018-05-23T21:08:27.192Z,19.15
2018-05-23T21:11:37.946Z,21.62
2018-05-23T21:14:48.232Z,21.30
2018-05-23T21:17:58.265Z,17.02
2018-05-23T21:21:08.826Z,20.02
2018-05-23T21:24:19.374Z,20.48
2018-05-23T21:27:29.580Z,21.35
2018-05-23T21:30:39.915Z,21.40
2018-05-23T21:33:51.344Z,21.45
2018-05-23T21:37:02.534Z,20.80
2018-05-23T21:40:13.222Z,21.62
2018-05-23T21:43:23.599Z,20.73
2018-05-23T21:46:33.873Z,20.17
2018-05-23T21:49:43.936Z,18.65
2018-05-23T21:52:55.245Z,20.05
2018-05-23T21:56:04.906Z,18.70
2018-05-23T21:59:15.535Z,19.37
2018-05-23T22:02:26.557Z,19.08
2018-05-23T22:05:37.349Z,19.25
2018-05-23T22:08:48.765Z,17.70
2018-05-23T22:11:59.240Z,18.02
2018-05-23T22:15:09.334Z,19.90
2018-05-23T22:18:20.560Z,18.33
2018-05-23T22:25:06.448Z,21.80
2018-05-23T22:28:16.905Z,18.65
2018-05-23T22:31:27.090Z,18.25
2018-05-23T22:34:38.039Z,19.73
2018-05-23T22:37:48.531Z,19.65
2018-05-23T22:40:59.036Z,19.00
2018-05-23T22:44:10.425Z,20.65
2018-05-23T22:47:21.520Z,15.77
2018-05-23T22:50:31.438Z,18.05
2018-05-23T22:53:41.589Z,19.50
2018-05-23T22:56:51.424Z,19.02
2018-05-23T23:00:01.552Z,15.75
2018-05-23T23:03:12.018Z,18.87
2018-05-23T23:06:22.214Z,16.02
2018-05-23T23:09:32.720Z,14.93
2018-05-23T23:12:43.701Z,14.87
2018-05-23T23:15:54.982Z,16.08
2018-05-23T23:19:06.912Z,16.27
2018-05-23T23:25:54.436Z,18.77
2018-05-23T23:29:05.035Z,15.95
2018-05-23T23:32:14.796Z,17.70
2018-05-23T23:35:25.018Z,17.58
2018-05-23T23:38:35.113Z,18.12
2018-05-23T23:41:45.308Z,14.73
2018-05-23T23:44:55.453Z,20.42
2018-05-23T23:48:06.027Z,17.05
2018-05-23T23:51:16.486Z,17.58
2018-05-23T23:54:27.436Z,17.02
2018-05-23T23:57:38.287Z,20.62
